sensor_id;sensor_type;location;lat;lon;timestamp;P1;durP1;ratioP1;P2;durP2;ratioP2
35444;SDS011;21562;49.476;6.086;2024-03-29T00:00:37;3.50;;;1.23;;
35444;SDS011;21562;49.476;6.086;2024-03-29T00:03:03;5.22;;;1.45;;
35444;SDS011;21562;49.476;6.086;2024-03-29T00:05:29;5.90;;;1.80;;
35444;SDS011;21562;49.476;6.086;2024-03-29T00:07:55;8.13;;;1.80;;
35444;SDS011;21562;49.476;6.086;2024-03-29T00:10:20;6.40;;;1.63;;
35444;SDS011;21562;49.476;6.086;2024-03-29T00:12:46;5.22;;;1.95;;
35444;SDS011;21562;49.476;6.086;2024-03-29T00:15:12;6.80;;;2.17;;
35444;SDS011;21562;49.476;6.086;2024-03-29T00:17:37;9.18;;;3.40;;
35444;SDS011;21562;49.476;6.086;2024-03-29T00:20:04;5.78;;;2.47;;
35444;SDS011;21562;49.476;6.086;2024-03-29T00:22:31;6.75;;;2.35;;
35444;SDS011;21562;49.476;6.086;2024-03-29T00:24:56;6.47;;;2.20;;
35444;SDS011;21562;49.476;6.086;2024-03-29T00:27:22;6.13;;;2.22;;
35444;SDS011;21562;49.476;6.086;2024-03-29T00:29:50;8.40;;;2.65;;
35444;SDS011;21562;49.476;6.086;2024-03-29T00:32:22;4.53;;;1.98;;
35444;SDS011;21562;49.476;6.086;2024-03-29T00:34:51;6.00;;;2.22;;
35444;SDS011;21562;49.476;6.086;2024-03-29T00:37:19;7.13;;;1.90;;
35444;SDS011;21562;49.476;6.086;2024-03-29T00:39:45;7.15;;;2.03;;
35444;SDS011;21562;49.476;6.086;2024-03-29T00:42:11;6.93;;;2.40;;
35444;SDS011;21562;49.476;6.086;2024-03-29T00:44:44;5.00;;;1.73;;
35444;SDS011;21562;49.476;6.086;2024-03-29T00:47:10;7.55;;;1.88;;
35444;SDS011;21562;49.476;6.086;2024-03-29T00:49:36;10.40;;;2.45;;
35444;SDS011;21562;49.476;6.086;2024-03-29T00:52:02;3.20;;;1.77;;
35444;SDS011;21562;49.476;6.086;2024-03-29T00:54:29;4.30;;;1.65;;
35444;SDS011;21562;49.476;6.086;2024-03-29T00:56:55;5.68;;;1.55;;
35444;SDS011;21562;49.476;6.086;2024-03-29T00:59:21;7.05;;;2.00;;
35444;SDS011;21562;49.476;6.086;2024-03-29T01:01:46;7.05;;;1.70;;
35444;SDS011;21562;49.476;6.086;2024-03-29T01:04:12;4.90;;;1.58;;
35444;SDS011;21562;49.476;6.086;2024-03-29T01:06:38;6.85;;;2.13;;
35444;SDS011;21562;49.476;6.086;2024-03-29T01:09:08;6.00;;;1.63;;
35444;SDS011;21562;49.476;6.086;2024-03-29T01:11:36;4.70;;;1.48;;
35444;SDS011;21562;49.476;6.086;2024-03-29T01:14:03;7.28;;;1.77;;
35444;SDS011;21562;49.476;6.086;2024-03-29T01:16:30;4.57;;;1.35;;
35444;SDS011;21562;49.476;6.086;2024-03-29T01:18:59;7.65;;;2.25;;
35444;SDS011;21562;49.476;6.086;2024-03-29T01:21:25;5.60;;;2.42;;
35444;SDS011;21562;49.476;6.086;2024-03-29T01:23:52;5.38;;;1.80;;
35444;SDS011;21562;49.476;6.086;2024-03-29T01:26:18;3.97;;;1.58;;
35444;SDS011;21562;49.476;6.086;2024-03-29T01:28:43;5.35;;;1.58;;
35444;SDS011;21562;49.476;6.086;2024-03-29T01:31:09;7.30;;;1.90;;
35444;SDS011;21562;49.476;6.086;2024-03-29T01:33:37;4.18;;;1.88;;
35444;SDS011;21562;49.476;6.086;2024-03-29T01:36:04;3.35;;;1.55;;
35444;SDS011;21562;49.476;6.086;2024-03-29T01:38:30;4.28;;;1.73;;
35444;SDS011;21562;49.476;6.086;2024-03-29T01:40:56;7.70;;;1.77;;
35444;SDS011;21562;49.476;6.086;2024-03-29T01:43:22;1.65;;;1.23;;
35444;SDS011;21562;49.476;6.086;2024-03-29T01:45:48;5.43;;;1.77;;
35444;SDS011;21562;49.476;6.086;2024-03-29T01:48:17;6.22;;;1.85;;
35444;SDS011;21562;49.476;6.086;2024-03-29T01:50:44;4.93;;;1.67;;
35444;SDS011;21562;49.476;6.086;2024-03-29T01:53:10;7.68;;;1.73;;
35444;SDS011;21562;49.476;6.086;2024-03-29T01:55:37;6.53;;;1.77;;
35444;SDS011;21562;49.476;6.086;2024-03-29T01:58:03;4.07;;;1.23;;
35444;SDS011;21562;49.476;6.086;2024-03-29T02:00:30;5.15;;;1.55;;
35444;SDS011;21562;49.476;6.086;2024-03-29T02:02:57;5.20;;;1.52;;
35444;SDS011;21562;49.476;6.086;2024-03-29T02:05:22;6.53;;;2.10;;
35444;SDS011;21562;49.476;6.086;2024-03-29T02:07:49;2.58;;;1.20;;
35444;SDS011;21562;49.476;6.086;2024-03-29T02:10:16;5.15;;;1.60;;
35444;SDS011;21562;49.476;6.086;2024-03-29T02:12:42;3.95;;;1.30;;
35444;SDS011;21562;49.476;6.086;2024-03-29T02:15:07;6.05;;;1.65;;
35444;SDS011;21562;49.476;6.086;2024-03-29T02:17:33;5.50;;;1.67;;
35444;SDS011;21562;49.476;6.086;2024-03-29T02:19:59;6.03;;;1.80;;
35444;SDS011;21562;49.476;6.086;2024-03-29T02:22:25;4.40;;;1.98;;
35444;SDS011;21562;49.476;6.086;2024-03-29T02:24:54;10.00;;;1.77;;
35444;SDS011;21562;49.476;6.086;2024-03-29T02:27:21;5.05;;;1.45;;
35444;SDS011;21562;49.476;6.086;2024-03-29T02:29:47;6.57;;;1.60;;
35444;SDS011;21562;49.476;6.086;2024-03-29T02:32:13;2.83;;;1.27;;
35444;SDS011;21562;49.476;6.086;2024-03-29T02:34:39;8.20;;;1.95;;
35444;SDS011;21562;49.476;6.086;2024-03-29T02:37:04;7.50;;;1.73;;
35444;SDS011;21562;49.476;6.086;2024-03-29T02:39:31;4.03;;;1.35;;
35444;SDS011;21562;49.476;6.086;2024-03-29T02:41:57;3.58;;;1.17;;
35444;SDS011;21562;49.476;6.086;2024-03-29T02:44:22;4.18;;;1.45;;
35444;SDS011;21562;49.476;6.086;2024-03-29T02:46:48;9.88;;;1.58;;
35444;SDS011;21562;49.476;6.086;2024-03-29T02:49:14;7.90;;;1.50;;
35444;SDS011;21562;49.476;6.086;2024-03-29T02:51:39;7.32;;;1.20;;
35444;SDS011;21562;49.476;6.086;2024-03-29T02:54:05;5.45;;;1.30;;
35444;SDS011;21562;49.476;6.086;2024-03-29T02:56:31;5.93;;;1.35;;
35444;SDS011;21562;49.476;6.086;2024-03-29T02:58:56;5.38;;;2.00;;
35444;SDS011;21562;49.476;6.086;2024-03-29T03:01:22;4.13;;;1.70;;
35444;SDS011;21562;49.476;6.086;2024-03-29T03:03:48;5.72;;;1.70;;
35444;SDS011;21562;49.476;6.086;2024-03-29T03:06:13;5.55;;;1.77;;
35444;SDS011;21562;49.476;6.086;2024-03-29T03:08:39;3.90;;;1.58;;
35444;SDS011;21562;49.476;6.086;2024-03-29T03:11:23;3.80;;;1.30;;
35444;SDS011;21562;49.476;6.086;2024-03-29T03:13:49;5.05;;;1.63;;
35444;SDS011;21562;49.476;6.086;2024-03-29T03:16:15;6.43;;;1.60;;
35444;SDS011;21562;49.476;6.086;2024-03-29T03:18:40;7.45;;;2.30;;
35444;SDS011;21562;49.476;6.086;2024-03-29T03:21:06;3.38;;;1.10;;
35444;SDS011;21562;49.476;6.086;2024-03-29T03:23:32;4.18;;;1.27;;
35444;SDS011;21562;49.476;6.086;2024-03-29T03:25:58;4.88;;;1.40;;
35444;SDS011;21562;49.476;6.086;2024-03-29T03:28:25;5.78;;;1.60;;
35444;SDS011;21562;49.476;6.086;2024-03-29T03:30:52;3.20;;;1.40;;
35444;SDS011;21562;49.476;6.086;2024-03-29T03:33:18;5.15;;;1.88;;
35444;SDS011;21562;49.476;6.086;2024-03-29T03:35:44;3.60;;;1.10;;
35444;SDS011;21562;49.476;6.086;2024-03-29T03:38:10;2.58;;;1.10;;
35444;SDS011;21562;49.476;6.086;2024-03-29T03:40:37;3.35;;;1.10;;
35444;SDS011;21562;49.476;6.086;2024-03-29T03:43:03;4.13;;;0.95;;
35444;SDS011;21562;49.476;6.086;2024-03-29T03:45:34;8.07;;;1.00;;
35444;SDS011;21562;49.476;6.086;2024-03-29T03:48:01;3.72;;;1.20;;
35444;SDS011;21562;49.476;6.086;2024-03-29T03:50:27;5.32;;;0.90;;
35444;SDS011;21562;49.476;6.086;2024-03-29T03:52:53;8.75;;;1.00;;
35444;SDS011;21562;49.476;6.086;2024-03-29T03:55:18;5.82;;;1.17;;
35444;SDS011;21562;49.476;6.086;2024-03-29T03:57:45;3.75;;;0.88;;
35444;SDS011;21562;49.476;6.086;2024-03-29T04:00:10;7.45;;;0.90;;
35444;SDS011;21562;49.476;6.086;2024-03-29T04:02:37;5.80;;;0.95;;
35444;SDS011;21562;49.476;6.086;2024-03-29T04:05:02;4.45;;;1.15;;
35444;SDS011;21562;49.476;6.086;2024-03-29T04:07:28;9.75;;;1.02;;
35444;SDS011;21562;49.476;6.086;2024-03-29T04:09:54;4.72;;;1.15;;
35444;SDS011;21562;49.476;6.086;2024-03-29T04:12:20;2.72;;;0.85;;
35444;SDS011;21562;49.476;6.086;2024-03-29T04:14:45;1.80;;;0.65;;
35444;SDS011;21562;49.476;6.086;2024-03-29T04:17:11;1.95;;;0.90;;
35444;SDS011;21562;49.476;6.086;2024-03-29T04:19:37;3.42;;;0.95;;
35444;SDS011;21562;49.476;6.086;2024-03-29T04:22:03;3.35;;;0.98;;
35444;SDS011;21562;49.476;6.086;2024-03-29T04:24:29;5.97;;;0.98;;
35444;SDS011;21562;49.476;6.086;2024-03-29T04:26:55;5.25;;;1.02;;
35444;SDS011;21562;49.476;6.086;2024-03-29T04:29:20;2.65;;;1.08;;
35444;SDS011;21562;49.476;6.086;2024-03-29T04:31:49;2.72;;;0.70;;
35444;SDS011;21562;49.476;6.086;2024-03-29T04:34:15;3.53;;;0.98;;
35444;SDS011;21562;49.476;6.086;2024-03-29T04:36:40;4.13;;;1.23;;
35444;SDS011;21562;49.476;6.086;2024-03-29T04:39:06;11.70;;;1.27;;
35444;SDS011;21562;49.476;6.086;2024-03-29T04:41:32;6.05;;;1.15;;
35444;SDS011;21562;49.476;6.086;2024-03-29T04:44:02;4.13;;;1.10;;
35444;SDS011;21562;49.476;6.086;2024-03-29T04:46:29;4.07;;;0.90;;
35444;SDS011;21562;49.476;6.086;2024-03-29T04:48:56;3.92;;;0.77;;
35444;SDS011;21562;49.476;6.086;2024-03-29T04:51:22;5.68;;;1.30;;
35444;SDS011;21562;49.476;6.086;2024-03-29T04:53:48;2.63;;;0.52;;
35444;SDS011;21562;49.476;6.086;2024-03-29T04:56:13;5.75;;;1.10;;
35444;SDS011;21562;49.476;6.086;2024-03-29T04:58:39;7.57;;;1.20;;
35444;SDS011;21562;49.476;6.086;2024-03-29T05:01:05;3.63;;;0.90;;
35444;SDS011;21562;49.476;6.086;2024-03-29T05:03:32;7.93;;;1.48;;
35444;SDS011;21562;49.476;6.086;2024-03-29T05:05:57;3.92;;;1.05;;
35444;SDS011;21562;49.476;6.086;2024-03-29T05:08:23;6.10;;;1.67;;
35444;SDS011;21562;49.476;6.086;2024-03-29T05:10:50;7.45;;;1.10;;
35444;SDS011;21562;49.476;6.086;2024-03-29T05:13:16;6.75;;;0.98;;
35444;SDS011;21562;49.476;6.086;2024-03-29T05:15:43;5.78;;;1.33;;
35444;SDS011;21562;49.476;6.086;2024-03-29T05:18:09;3.13;;;1.00;;
35444;SDS011;21562;49.476;6.086;2024-03-29T05:20:35;4.40;;;1.27;;
35444;SDS011;21562;49.476;6.086;2024-03-29T05:23:01;3.20;;;1.10;;
35444;SDS011;21562;49.476;6.086;2024-03-29T05:25:27;4.18;;;1.27;;
35444;SDS011;21562;49.476;6.086;2024-03-29T05:27:53;1.60;;;1.23;;
35444;SDS011;21562;49.476;6.086;2024-03-29T05:30:19;5.63;;;1.60;;
35444;SDS011;21562;49.476;6.086;2024-03-29T05:32:44;1.77;;;1.00;;
35444;SDS011;21562;49.476;6.086;2024-03-29T05:35:10;5.57;;;1.50;;
35444;SDS011;21562;49.476;6.086;2024-03-29T05:37:36;6.57;;;1.27;;
35444;SDS011;21562;49.476;6.086;2024-03-29T05:40:02;4.53;;;1.30;;
35444;SDS011;21562;49.476;6.086;2024-03-29T05:42:32;4.22;;;1.05;;
35444;SDS011;21562;49.476;6.086;2024-03-29T05:44:59;5.88;;;1.55;;
35444;SDS011;21562;49.476;6.086;2024-03-29T05:47:25;4.90;;;1.88;;
35444;SDS011;21562;49.476;6.086;2024-03-29T05:49:51;5.20;;;1.58;;
35444;SDS011;21562;49.476;6.086;2024-03-29T05:52:19;1.75;;;1.13;;
35444;SDS011;21562;49.476;6.086;2024-03-29T05:54:45;6.88;;;1.52;;
35444;SDS011;21562;49.476;6.086;2024-03-29T05:57:11;4.18;;;1.70;;
35444;SDS011;21562;49.476;6.086;2024-03-29T05:59:37;6.30;;;1.30;;
35444;SDS011;21562;49.476;6.086;2024-03-29T06:02:03;3.28;;;1.42;;
35444;SDS011;21562;49.476;6.086;2024-03-29T06:04:29;1.42;;;1.00;;
35444;SDS011;21562;49.476;6.086;2024-03-29T06:06:58;5.30;;;1.40;;
35444;SDS011;21562;49.476;6.086;2024-03-29T06:09:28;5.78;;;1.13;;
35444;SDS011;21562;49.476;6.086;2024-03-29T06:11:54;4.45;;;1.20;;
35444;SDS011;21562;49.476;6.086;2024-03-29T06:14:21;9.23;;;1.60;;
35444;SDS011;21562;49.476;6.086;2024-03-29T06:17:09;6.43;;;1.73;;
35444;SDS011;21562;49.476;6.086;2024-03-29T06:22:23;5.80;;;0.90;;
35444;SDS011;21562;49.476;6.086;2024-03-29T06:24:50;4.20;;;1.10;;
35444;SDS011;21562;49.476;6.086;2024-03-29T06:27:19;5.53;;;1.08;;
35444;SDS011;21562;49.476;6.086;2024-03-29T06:29:49;2.20;;;0.93;;
35444;SDS011;21562;49.476;6.086;2024-03-29T06:32:15;3.58;;;1.33;;
35444;SDS011;21562;49.476;6.086;2024-03-29T06:34:47;6.63;;;1.27;;
35444;SDS011;21562;49.476;6.086;2024-03-29T06:37:13;4.72;;;1.15;;
35444;SDS011;21562;49.476;6.086;2024-03-29T06:39:39;5.90;;;1.20;;
35444;SDS011;21562;49.476;6.086;2024-03-29T06:42:05;11.13;;;1.42;;
35444;SDS011;21562;49.476;6.086;2024-03-29T06:44:33;5.35;;;1.27;;
35444;SDS011;21562;49.476;6.086;2024-03-29T06:46:59;12.27;;;2.17;;
35444;SDS011;21562;49.476;6.086;2024-03-29T06:49:25;4.40;;;1.50;;
35444;SDS011;21562;49.476;6.086;2024-03-29T06:51:51;5.47;;;1.30;;
35444;SDS011;21562;49.476;6.086;2024-03-29T06:54:18;4.55;;;1.52;;
35444;SDS011;21562;49.476;6.086;2024-03-29T06:56:47;2.92;;;1.02;;
35444;SDS011;21562;49.476;6.086;2024-03-29T06:59:13;5.55;;;1.27;;
35444;SDS011;21562;49.476;6.086;2024-03-29T07:01:39;3.45;;;1.17;;
35444;SDS011;21562;49.476;6.086;2024-03-29T07:04:05;4.63;;;1.38;;
35444;SDS011;21562;49.476;6.086;2024-03-29T07:06:31;5.68;;;1.27;;
35444;SDS011;21562;49.476;6.086;2024-03-29T07:08:57;3.33;;;1.25;;
35444;SDS011;21562;49.476;6.086;2024-03-29T07:11:22;8.52;;;1.45;;
35444;SDS011;21562;49.476;6.086;2024-03-29T07:13:48;6.88;;;1.67;;
35444;SDS011;21562;49.476;6.086;2024-03-29T07:16:14;3.47;;;1.30;;
35444;SDS011;21562;49.476;6.086;2024-03-29T07:18:39;3.58;;;1.10;;
35444;SDS011;21562;49.476;6.086;2024-03-29T07:21:05;3.70;;;1.30;;
35444;SDS011;21562;49.476;6.086;2024-03-29T07:23:31;3.45;;;1.20;;
35444;SDS011;21562;49.476;6.086;2024-03-29T07:26:00;3.08;;;1.38;;
35444;SDS011;21562;49.476;6.086;2024-03-29T07:28:28;3.20;;;1.20;;
35444;SDS011;21562;49.476;6.086;2024-03-29T07:30:54;2.83;;;1.30;;
35444;SDS011;21562;49.476;6.086;2024-03-29T07:33:20;3.42;;;1.23;;
35444;SDS011;21562;49.476;6.086;2024-03-29T07:35:48;6.50;;;1.95;;
35444;SDS011;21562;49.476;6.086;2024-03-29T07:38:17;3.15;;;1.20;;
35444;SDS011;21562;49.476;6.086;2024-03-29T07:40:45;6.07;;;1.25;;
35444;SDS011;21562;49.476;6.086;2024-03-29T07:43:12;8.50;;;1.70;;
35444;SDS011;21562;49.476;6.086;2024-03-29T07:45:41;4.57;;;1.77;;
35444;SDS011;21562;49.476;6.086;2024-03-29T07:48:11;7.57;;;1.77;;
35444;SDS011;21562;49.476;6.086;2024-03-29T07:50:38;7.55;;;1.83;;
35444;SDS011;21562;49.476;6.086;2024-03-29T07:53:07;4.28;;;1.42;;
35444;SDS011;21562;49.476;6.086;2024-03-29T07:55:40;4.78;;;1.48;;
35444;SDS011;21562;49.476;6.086;2024-03-29T07:58:06;3.25;;;1.40;;
35444;SDS011;21562;49.476;6.086;2024-03-29T08:00:34;7.57;;;1.20;;
35444;SDS011;21562;49.476;6.086;2024-03-29T08:03:00;2.00;;;1.05;;
35444;SDS011;21562;49.476;6.086;2024-03-29T08:05:29;5.07;;;1.20;;
35444;SDS011;21562;49.476;6.086;2024-03-29T08:07:54;7.35;;;1.30;;
35444;SDS011;21562;49.476;6.086;2024-03-29T08:10:20;6.03;;;1.52;;
35444;SDS011;21562;49.476;6.086;2024-03-29T08:12:46;4.43;;;1.67;;
35444;SDS011;21562;49.476;6.086;2024-03-29T08:15:12;7.72;;;1.15;;
35444;SDS011;21562;49.476;6.086;2024-03-29T08:17:37;2.00;;;1.02;;
35444;SDS011;21562;49.476;6.086;2024-03-29T08:20:03;4.80;;;1.20;;
35444;SDS011;21562;49.476;6.086;2024-03-29T08:22:29;5.28;;;1.10;;
35444;SDS011;21562;49.476;6.086;2024-03-29T08:24:58;8.27;;;1.35;;
35444;SDS011;21562;49.476;6.086;2024-03-29T08:27:25;7.43;;;1.40;;
35444;SDS011;21562;49.476;6.086;2024-03-29T08:29:51;2.25;;;1.25;;
35444;SDS011;21562;49.476;6.086;2024-03-29T08:32:17;3.40;;;1.30;;
35444;SDS011;21562;49.476;6.086;2024-03-29T08:34:43;6.68;;;1.70;;
35444;SDS011;21562;49.476;6.086;2024-03-29T08:37:09;2.53;;;1.30;;
35444;SDS011;21562;49.476;6.086;2024-03-29T08:39:35;5.88;;;1.48;;
35444;SDS011;21562;49.476;6.086;2024-03-29T08:42:03;4.38;;;1.33;;
35444;SDS011;21562;49.476;6.086;2024-03-29T08:44:35;4.63;;;1.33;;
35444;SDS011;21562;49.476;6.086;2024-03-29T08:47:01;3.40;;;1.27;;
35444;SDS011;21562;49.476;6.086;2024-03-29T08:49:28;6.22;;;1.67;;
35444;SDS011;21562;49.476;6.086;2024-03-29T08:51:54;5.05;;;1.80;;
35444;SDS011;21562;49.476;6.086;2024-03-29T08:54:20;3.35;;;1.75;;
35444;SDS011;21562;49.476;6.086;2024-03-29T08:56:45;3.72;;;1.77;;
35444;SDS011;21562;49.476;6.086;2024-03-29T08:59:11;5.07;;;1.65;;
35444;SDS011;21562;49.476;6.086;2024-03-29T09:01:45;6.15;;;1.42;;
35444;SDS011;21562;49.476;6.086;2024-03-29T09:04:13;2.78;;;1.40;;
35444;SDS011;21562;49.476;6.086;2024-03-29T09:06:40;3.33;;;1.60;;
35444;SDS011;21562;49.476;6.086;2024-03-29T09:09:06;7.10;;;1.98;;
35444;SDS011;21562;49.476;6.086;2024-03-29T09:11:32;3.45;;;1.52;;
35444;SDS011;21562;49.476;6.086;2024-03-29T09:13:58;6.80;;;1.58;;
35444;SDS011;21562;49.476;6.086;2024-03-29T09:16:25;5.35;;;1.95;;
35444;SDS011;21562;49.476;6.086;2024-03-29T09:18:51;4.82;;;1.15;;
35444;SDS011;21562;49.476;6.086;2024-03-29T09:21:17;7.57;;;1.48;;
35444;SDS011;21562;49.476;6.086;2024-03-29T09:23:45;9.13;;;1.70;;
35444;SDS011;21562;49.476;6.086;2024-03-29T09:26:11;3.72;;;1.40;;
35444;SDS011;21562;49.476;6.086;2024-03-29T09:28:39;1.45;;;0.80;;
35444;SDS011;21562;49.476;6.086;2024-03-29T09:31:05;4.10;;;1.63;;
35444;SDS011;21562;49.476;6.086;2024-03-29T09:33:31;10.40;;;1.90;;
35444;SDS011;21562;49.476;6.086;2024-03-29T09:35:57;5.30;;;1.80;;
35444;SDS011;21562;49.476;6.086;2024-03-29T09:38:26;12.02;;;5.28;;
35444;SDS011;21562;49.476;6.086;2024-03-29T09:41:14;2.42;;;1.20;;
35444;SDS011;21562;49.476;6.086;2024-03-29T09:43:43;3.88;;;1.35;;
35444;SDS011;21562;49.476;6.086;2024-03-29T09:46:15;3.70;;;1.23;;
35444;SDS011;21562;49.476;6.086;2024-03-29T09:48:41;8.10;;;1.63;;
35444;SDS011;21562;49.476;6.086;2024-03-29T09:51:10;5.53;;;1.50;;
35444;SDS011;21562;49.476;6.086;2024-03-29T09:53:39;3.53;;;1.52;;
35444;SDS011;21562;49.476;6.086;2024-03-29T09:56:07;5.00;;;1.70;;
35444;SDS011;21562;49.476;6.086;2024-03-29T09:58:34;4.30;;;1.10;;
35444;SDS011;21562;49.476;6.086;2024-03-29T10:01:01;2.95;;;1.30;;
35444;SDS011;21562;49.476;6.086;2024-03-29T10:03:29;6.55;;;1.20;;
35444;SDS011;21562;49.476;6.086;2024-03-29T10:05:59;4.85;;;1.33;;
35444;SDS011;21562;49.476;6.086;2024-03-29T10:08:29;7.85;;;1.42;;
35444;SDS011;21562;49.476;6.086;2024-03-29T10:10:59;6.85;;;1.30;;
35444;SDS011;21562;49.476;6.086;2024-03-29T10:13:25;6.85;;;1.50;;
35444;SDS011;21562;49.476;6.086;2024-03-29T10:15:55;2.60;;;1.00;;
35444;SDS011;21562;49.476;6.086;2024-03-29T10:18:25;5.78;;;1.67;;
35444;SDS011;21562;49.476;6.086;2024-03-29T10:21:25;4.72;;;1.20;;
35444;SDS011;21562;49.476;6.086;2024-03-29T10:23:49;5.57;;;1.15;;
35444;SDS011;21562;49.476;6.086;2024-03-29T10:26:16;5.57;;;1.30;;
35444;SDS011;21562;49.476;6.086;2024-03-29T10:28:43;7.93;;;1.42;;
35444;SDS011;21562;49.476;6.086;2024-03-29T10:31:08;7.20;;;1.27;;
35444;SDS011;21562;49.476;6.086;2024-03-29T10:33:34;8.52;;;1.52;;
35444;SDS011;21562;49.476;6.086;2024-03-29T10:36:00;5.60;;;1.13;;
35444;SDS011;21562;49.476;6.086;2024-03-29T10:38:29;5.13;;;1.00;;
35444;SDS011;21562;49.476;6.086;2024-03-29T10:40:55;2.42;;;1.00;;
35444;SDS011;21562;49.476;6.086;2024-03-29T10:43:22;3.20;;;1.55;;
35444;SDS011;21562;49.476;6.086;2024-03-29T10:45:49;4.60;;;1.83;;
35444;SDS011;21562;49.476;6.086;2024-03-29T10:48:16;9.90;;;1.42;;
35444;SDS011;21562;49.476;6.086;2024-03-29T10:50:42;4.03;;;1.02;;
35444;SDS011;21562;49.476;6.086;2024-03-29T10:53:09;4.47;;;1.75;;
35444;SDS011;21562;49.476;6.086;2024-03-29T10:55:38;7.78;;;2.03;;
35444;SDS011;21562;49.476;6.086;2024-03-29T10:58:04;3.92;;;1.42;;
35444;SDS011;21562;49.476;6.086;2024-03-29T11:00:34;4.47;;;2.28;;
35444;SDS011;21562;49.476;6.086;2024-03-29T11:03:11;6.63;;;1.60;;
35444;SDS011;21562;49.476;6.086;2024-03-29T11:05:44;5.35;;;1.77;;
35444;SDS011;21562;49.476;6.086;2024-03-29T11:08:24;4.15;;;1.23;;
35444;SDS011;21562;49.476;6.086;2024-03-29T11:10:53;3.58;;;0.98;;
35444;SDS011;21562;49.476;6.086;2024-03-29T11:13:45;1.75;;;0.90;;
35444;SDS011;21562;49.476;6.086;2024-03-29T11:16:23;2.15;;;0.55;;
35444;SDS011;21562;49.476;6.086;2024-03-29T11:18:50;6.28;;;0.93;;
35444;SDS011;21562;49.476;6.086;2024-03-29T11:21:17;1.27;;;0.68;;
35444;SDS011;21562;49.476;6.086;2024-03-29T11:23:49;5.45;;;0.70;;
35444;SDS011;21562;49.476;6.086;2024-03-29T11:26:17;1.95;;;0.70;;
35444;SDS011;21562;49.476;6.086;2024-03-29T11:28:50;1.88;;;0.68;;
35444;SDS011;21562;49.476;6.086;2024-03-29T11:31:17;3.65;;;0.98;;
35444;SDS011;21562;49.476;6.086;2024-03-29T11:33:48;2.58;;;0.98;;
35444;SDS011;21562;49.476;6.086;2024-03-29T11:38:56;6.55;;;2.45;;
35444;SDS011;21562;49.476;6.086;2024-03-29T11:41:23;4.57;;;0.73;;
35444;SDS011;21562;49.476;6.086;2024-03-29T11:43:50;3.47;;;0.57;;
35444;SDS011;21562;49.476;6.086;2024-03-29T11:46:16;2.67;;;0.65;;
35444;SDS011;21562;49.476;6.086;2024-03-29T11:48:46;3.38;;;0.88;;
35444;SDS011;21562;49.476;6.086;2024-03-29T11:51:14;1.58;;;0.50;;
35444;SDS011;21562;49.476;6.086;2024-03-29T11:53:42;0.88;;;0.50;;
35444;SDS011;21562;49.476;6.086;2024-03-29T11:56:08;1.63;;;0.60;;
35444;SDS011;21562;49.476;6.086;2024-03-29T11:58:36;2.65;;;0.60;;
35444;SDS011;21562;49.476;6.086;2024-03-29T12:01:02;3.63;;;0.60;;
35444;SDS011;21562;49.476;6.086;2024-03-29T12:03:29;1.73;;;0.93;;
35444;SDS011;21562;49.476;6.086;2024-03-29T12:05:57;0.88;;;0.52;;
35444;SDS011;21562;49.476;6.086;2024-03-29T12:08:28;2.78;;;0.60;;
35444;SDS011;21562;49.476;6.086;2024-03-29T12:10:57;2.28;;;0.73;;
35444;SDS011;21562;49.476;6.086;2024-03-29T12:13:23;2.03;;;0.73;;
35444;SDS011;21562;49.476;6.086;2024-03-29T12:15:49;3.50;;;0.52;;
35444;SDS011;21562;49.476;6.086;2024-03-29T12:18:14;2.00;;;0.70;;
35444;SDS011;21562;49.476;6.086;2024-03-29T12:20:41;2.63;;;0.65;;
35444;SDS011;21562;49.476;6.086;2024-03-29T12:23:11;1.67;;;0.60;;
35444;SDS011;21562;49.476;6.086;2024-03-29T12:25:38;2.63;;;1.05;;
35444;SDS011;21562;49.476;6.086;2024-03-29T12:28:05;3.28;;;0.60;;
35444;SDS011;21562;49.476;6.086;2024-03-29T12:30:32;1.08;;;0.60;;
35444;SDS011;21562;49.476;6.086;2024-03-29T12:35:31;5.18;;;0.80;;
35444;SDS011;21562;49.476;6.086;2024-03-29T12:37:59;2.25;;;0.45;;
35444;SDS011;21562;49.476;6.086;2024-03-29T12:40:43;2.08;;;0.43;;
35444;SDS011;21562;49.476;6.086;2024-03-29T12:43:12;2.08;;;0.63;;
35444;SDS011;21562;49.476;6.086;2024-03-29T12:45:38;1.77;;;0.80;;
35444;SDS011;21562;49.476;6.086;2024-03-29T12:48:09;2.75;;;0.40;;
35444;SDS011;21562;49.476;6.086;2024-03-29T12:50:35;1.65;;;0.68;;
35444;SDS011;21562;49.476;6.086;2024-03-29T12:53:02;3.22;;;0.55;;
35444;SDS011;21562;49.476;6.086;2024-03-29T12:55:31;1.75;;;0.43;;
35444;SDS011;21562;49.476;6.086;2024-03-29T12:58:00;0.73;;;0.43;;
35444;SDS011;21562;49.476;6.086;2024-03-29T13:00:27;1.88;;;0.70;;
35444;SDS011;21562;49.476;6.086;2024-03-29T13:02:53;4.07;;;1.00;;
35444;SDS011;21562;49.476;6.086;2024-03-29T13:05:19;2.40;;;0.50;;
35444;SDS011;21562;49.476;6.086;2024-03-29T13:07:45;5.97;;;0.70;;
35444;SDS011;21562;49.476;6.086;2024-03-29T13:10:11;0.90;;;0.43;;
35444;SDS011;21562;49.476;6.086;2024-03-29T13:12:46;5.20;;;0.65;;
35444;SDS011;21562;49.476;6.086;2024-03-29T13:15:25;1.38;;;0.50;;
35444;SDS011;21562;49.476;6.086;2024-03-29T13:17:52;1.58;;;0.50;;
35444;SDS011;21562;49.476;6.086;2024-03-29T13:20:19;1.42;;;0.73;;
35444;SDS011;21562;49.476;6.086;2024-03-29T13:22:47;10.82;;;2.30;;
35444;SDS011;21562;49.476;6.086;2024-03-29T13:25:15;11.32;;;2.40;;
35444;SDS011;21562;49.476;6.086;2024-03-29T13:27:42;1.75;;;0.40;;
35444;SDS011;21562;49.476;6.086;2024-03-29T13:30:10;3.60;;;0.60;;
35444;SDS011;21562;49.476;6.086;2024-03-29T13:32:40;1.13;;;0.50;;
35444;SDS011;21562;49.476;6.086;2024-03-29T13:35:07;2.67;;;0.65;;
35444;SDS011;21562;49.476;6.086;2024-03-29T13:37:39;1.17;;;0.55;;
35444;SDS011;21562;49.476;6.086;2024-03-29T13:40:12;3.10;;;0.70;;
35444;SDS011;21562;49.476;6.086;2024-03-29T13:42:39;1.05;;;0.75;;
35444;SDS011;21562;49.476;6.086;2024-03-29T13:45:05;4.28;;;0.70;;
35444;SDS011;21562;49.476;6.086;2024-03-29T13:47:33;1.42;;;0.60;;
35444;SDS011;21562;49.476;6.086;2024-03-29T13:49:59;2.55;;;0.60;;
35444;SDS011;21562;49.476;6.086;2024-03-29T13:52:25;3.72;;;0.70;;
35444;SDS011;21562;49.476;6.086;2024-03-29T13:54:52;1.85;;;0.60;;
35444;SDS011;21562;49.476;6.086;2024-03-29T13:57:19;3.17;;;0.93;;
35444;SDS011;21562;49.476;6.086;2024-03-29T13:59:45;1.40;;;0.50;;
35444;SDS011;21562;49.476;6.086;2024-03-29T14:02:11;2.10;;;0.60;;
35444;SDS011;21562;49.476;6.086;2024-03-29T14:04:42;2.78;;;0.60;;
35444;SDS011;21562;49.476;6.086;2024-03-29T14:07:09;1.83;;;0.55;;
35444;SDS011;21562;49.476;6.086;2024-03-29T14:09:39;1.67;;;0.70;;
35444;SDS011;21562;49.476;6.086;2024-03-29T14:12:09;1.80;;;0.55;;
35444;SDS011;21562;49.476;6.086;2024-03-29T14:14:35;1.50;;;0.55;;
35444;SDS011;21562;49.476;6.086;2024-03-29T14:17:01;0.85;;;0.50;;
35444;SDS011;21562;49.476;6.086;2024-03-29T14:19:38;1.73;;;0.55;;
35444;SDS011;21562;49.476;6.086;2024-03-29T14:22:04;4.80;;;1.13;;
35444;SDS011;21562;49.476;6.086;2024-03-29T14:24:31;0.98;;;0.70;;
35444;SDS011;21562;49.476;6.086;2024-03-29T14:27:00;2.83;;;0.63;;
35444;SDS011;21562;49.476;6.086;2024-03-29T14:29:32;4.25;;;0.77;;
35444;SDS011;21562;49.476;6.086;2024-03-29T14:31:59;6.72;;;0.80;;
35444;SDS011;21562;49.476;6.086;2024-03-29T14:34:26;5.65;;;0.80;;
35444;SDS011;21562;49.476;6.086;2024-03-29T14:36:52;3.72;;;0.50;;
35444;SDS011;21562;49.476;6.086;2024-03-29T14:39:17;1.55;;;0.60;;
35444;SDS011;21562;49.476;6.086;2024-03-29T14:41:46;1.98;;;0.70;;
35444;SDS011;21562;49.476;6.086;2024-03-29T14:44:12;2.65;;;0.90;;
35444;SDS011;21562;49.476;6.086;2024-03-29T14:46:38;1.30;;;0.57;;
35444;SDS011;21562;49.476;6.086;2024-03-29T14:49:04;2.63;;;0.70;;
35444;SDS011;21562;49.476;6.086;2024-03-29T14:51:32;1.25;;;0.73;;
35444;SDS011;21562;49.476;6.086;2024-03-29T14:53:58;3.50;;;1.08;;
35444;SDS011;21562;49.476;6.086;2024-03-29T14:56:24;20.10;;;2.88;;